sensor_id;sensor_type;location;lat;lon;timestamp;P1;durP1;ratioP1;P2;durP2;ratioP2
26718;SDS011;14326;50.794;6.060;2024-01-27T00:02:06;21.20;;;4.15;;
26718;SDS011;14326;50.794;6.060;2024-01-27T00:04:35;19.02;;;4.45;;
26718;SDS011;14326;50.794;6.060;2024-01-27T00:07:03;16.52;;;3.35;;
26718;SDS011;14326;50.794;6.060;2024-01-27T00:09:29;21.63;;;4.03;;
26718;SDS011;14326;50.794;6.060;2024-01-27T00:11:56;20.67;;;4.05;;
26718;SDS011;14326;50.794;6.060;2024-01-27T00:14:23;18.63;;;3.75;;
26718;SDS011;14326;50.794;6.060;2024-01-27T00:16:49;17.83;;;4.00;;
26718;SDS011;14326;50.794;6.060;2024-01-27T00:19:16;22.55;;;4.07;;
26718;SDS011;14326;50.794;6.060;2024-01-27T00:21:42;16.42;;;3.83;;
26718;SDS011;14326;50.794;6.060;2024-01-27T00:24:10;22.05;;;4.43;;
26718;SDS011;14326;50.794;6.060;2024-01-27T00:26:37;15.27;;;3.72;;
26718;SDS011;14326;50.794;6.060;2024-01-27T00:29:04;22.15;;;3.80;;
26718;SDS011;14326;50.794;6.060;2024-01-27T00:31:30;18.60;;;4.05;;
26718;SDS011;14326;50.794;6.060;2024-01-27T00:33:57;27.85;;;4.32;;
26718;SDS011;14326;50.794;6.060;2024-01-27T00:36:23;18.10;;;4.03;;
26718;SDS011;14326;50.794;6.060;2024-01-27T00:38:50;16.23;;;4.05;;
26718;SDS011;14326;50.794;6.060;2024-01-27T00:41:18;16.02;;;3.60;;
26718;SDS011;14326;50.794;6.060;2024-01-27T00:43:45;17.92;;;3.90;;
26718;SDS011;14326;50.794;6.060;2024-01-27T00:46:11;20.35;;;4.55;;
26718;SDS011;14326;50.794;6.060;2024-01-27T00:48:38;18.75;;;4.35;;
26718;SDS011;14326;50.794;6.060;2024-01-27T00:51:04;16.35;;;3.35;;
26718;SDS011;14326;50.794;6.060;2024-01-27T00:53:31;23.00;;;4.32;;
26718;SDS011;14326;50.794;6.060;2024-01-27T00:55:58;20.65;;;3.90;;
26718;SDS011;14326;50.794;6.060;2024-01-27T00:58:26;15.07;;;4.28;;
26718;SDS011;14326;50.794;6.060;2024-01-27T01:00:53;20.02;;;4.00;;
26718;SDS011;14326;50.794;6.060;2024-01-27T01:03:19;14.70;;;3.67;;
26718;SDS011;14326;50.794;6.060;2024-01-27T01:05:46;20.88;;;4.03;;
26718;SDS011;14326;50.794;6.060;2024-01-27T01:08:13;14.38;;;3.58;;
26718;SDS011;14326;50.794;6.060;2024-01-27T01:10:39;16.77;;;3.83;;
26718;SDS011;14326;50.794;6.060;2024-01-27T01:13:06;17.95;;;4.38;;
26718;SDS011;14326;50.794;6.060;2024-01-27T01:15:34;17.20;;;4.00;;
26718;SDS011;14326;50.794;6.060;2024-01-27T01:18:01;19.98;;;4.43;;
26718;SDS011;14326;50.794;6.060;2024-01-27T01:20:29;17.38;;;3.78;;
26718;SDS011;14326;50.794;6.060;2024-01-27T01:22:55;18.17;;;3.63;;
26718;SDS011;14326;50.794;6.060;2024-01-27T01:25:22;21.13;;;3.72;;
26718;SDS011;14326;50.794;6.060;2024-01-27T01:27:48;21.70;;;3.70;;
26718;SDS011;14326;50.794;6.060;2024-01-27T01:30:15;20.75;;;4.07;;
26718;SDS011;14326;50.794;6.060;2024-01-27T01:32:43;20.85;;;3.58;;
26718;SDS011;14326;50.794;6.060;2024-01-27T01:35:10;16.02;;;3.33;;
26718;SDS011;14326;50.794;6.060;2024-01-27T01:37:38;21.65;;;4.25;;
26718;SDS011;14326;50.794;6.060;2024-01-27T01:40:05;16.35;;;3.95;;
26718;SDS011;14326;50.794;6.060;2024-01-27T01:42:33;25.65;;;4.32;;
26718;SDS011;14326;50.794;6.060;2024-01-27T01:44:59;22.90;;;4.45;;
26718;SDS011;14326;50.794;6.060;2024-01-27T01:47:26;19.48;;;4.07;;
26718;SDS011;14326;50.794;6.060;2024-01-27T01:49:55;18.10;;;4.03;;
26718;SDS011;14326;50.794;6.060;2024-01-27T01:52:22;23.05;;;4.70;;
26718;SDS011;14326;50.794;6.060;2024-01-27T01:54:49;17.85;;;4.50;;
26718;SDS011;14326;50.794;6.060;2024-01-27T01:57:16;19.23;;;4.40;;
26718;SDS011;14326;50.794;6.060;2024-01-27T01:59:43;26.02;;;4.53;;
26718;SDS011;14326;50.794;6.060;2024-01-27T02:02:09;21.63;;;4.68;;
26718;SDS011;14326;50.794;6.060;2024-01-27T02:04:39;22.63;;;5.28;;
26718;SDS011;14326;50.794;6.060;2024-01-27T02:07:08;20.42;;;3.78;;
26718;SDS011;14326;50.794;6.060;2024-01-27T02:09:34;18.65;;;4.65;;
26718;SDS011;14326;50.794;6.060;2024-01-27T02:12:01;26.27;;;6.00;;
26718;SDS011;14326;50.794;6.060;2024-01-27T02:14:28;24.27;;;5.22;;
26718;SDS011;14326;50.794;6.060;2024-01-27T02:16:55;20.65;;;5.35;;
26718;SDS011;14326;50.794;6.060;2024-01-27T02:19:22;25.30;;;4.43;;
26718;SDS011;14326;50.794;6.060;2024-01-27T02:21:49;18.23;;;3.83;;
26718;SDS011;14326;50.794;6.060;2024-01-27T02:24:17;21.45;;;4.18;;
26718;SDS011;14326;50.794;6.060;2024-01-27T02:26:44;22.20;;;4.25;;
26718;SDS011;14326;50.794;6.060;2024-01-27T02:29:10;17.98;;;4.18;;
26718;SDS011;14326;50.794;6.060;2024-01-27T02:31:37;20.20;;;4.22;;
26718;SDS011;14326;50.794;6.060;2024-01-27T02:34:04;15.52;;;3.78;;
26718;SDS011;14326;50.794;6.060;2024-01-27T02:36:30;19.80;;;3.90;;
26718;SDS011;14326;50.794;6.060;2024-01-27T02:38:57;17.95;;;3.65;;
26718;SDS011;14326;50.794;6.060;2024-01-27T02:41:25;18.13;;;3.92;;
26718;SDS011;14326;50.794;6.060;2024-01-27T02:43:52;18.05;;;3.50;;
26718;SDS011;14326;50.794;6.060;2024-01-27T02:46:18;21.55;;;3.95;;
26718;SDS011;14326;50.794;6.060;2024-01-27T02:48:45;21.92;;;4.00;;
26718;SDS011;14326;50.794;6.060;2024-01-27T02:51:11;20.95;;;4.18;;
26718;SDS011;14326;50.794;6.060;2024-01-27T02:53:38;13.65;;;4.38;;
26718;SDS011;14326;50.794;6.060;2024-01-27T02:56:06;16.70;;;4.22;;
26718;SDS011;14326;50.794;6.060;2024-01-27T02:58:35;17.85;;;3.33;;
26718;SDS011;14326;50.794;6.060;2024-01-27T03:01:01;15.75;;;3.60;;
26718;SDS011;14326;50.794;6.060;2024-01-27T03:03:28;16.75;;;3.60;;
26718;SDS011;14326;50.794;6.060;2024-01-27T03:05:55;19.05;;;3.50;;
26718;SDS011;14326;50.794;6.060;2024-01-27T03:08:21;17.38;;;3.53;;
26718;SDS011;14326;50.794;6.060;2024-01-27T03:10:48;22.20;;;4.10;;
26718;SDS011;14326;50.794;6.060;2024-01-27T03:13:15;19.33;;;3.97;;
26718;SDS011;14326;50.794;6.060;2024-01-27T03:15:43;15.40;;;3.28;;
26718;SDS011;14326;50.794;6.060;2024-01-27T03:18:10;20.13;;;3.72;;
26718;SDS011;14326;50.794;6.060;2024-01-27T03:20:36;16.98;;;3.20;;
26718;SDS011;14326;50.794;6.060;2024-01-27T03:23:03;14.95;;;3.60;;
26718;SDS011;14326;50.794;6.060;2024-01-27T03:25:30;16.00;;;3.15;;
26718;SDS011;14326;50.794;6.060;2024-01-27T03:27:56;13.13;;;3.33;;
26718;SDS011;14326;50.794;6.060;2024-01-27T03:30:23;17.83;;;3.40;;
26718;SDS011;14326;50.794;6.060;2024-01-27T03:32:51;12.70;;;3.30;;
26718;SDS011;14326;50.794;6.060;2024-01-27T03:35:17;17.45;;;3.30;;
26718;SDS011;14326;50.794;6.060;2024-01-27T03:37:44;14.07;;;3.33;;
26718;SDS011;14326;50.794;6.060;2024-01-27T03:40:11;19.02;;;3.97;;
26718;SDS011;14326;50.794;6.060;2024-01-27T03:42:38;16.15;;;3.80;;
26718;SDS011;14326;50.794;6.060;2024-01-27T03:45:05;15.25;;;4.35;;
26718;SDS011;14326;50.794;6.060;2024-01-27T03:47:32;16.30;;;4.10;;
26718;SDS011;14326;50.794;6.060;2024-01-27T03:50:00;19.42;;;3.78;;
26718;SDS011;14326;50.794;6.060;2024-01-27T03:52:26;16.63;;;3.65;;
26718;SDS011;14326;50.794;6.060;2024-01-27T03:54:53;19.38;;;4.10;;
26718;SDS011;14326;50.794;6.060;2024-01-27T03:57:20;22.95;;;4.38;;
26718;SDS011;14326;50.794;6.060;2024-01-27T03:59:46;20.20;;;3.70;;
26718;SDS011;14326;50.794;6.060;2024-01-27T04:02:13;23.00;;;4.22;;
26718;SDS011;14326;50.794;6.060;2024-01-27T04:04:39;15.00;;;3.78;;
26718;SDS011;14326;50.794;6.060;2024-01-27T04:07:07;20.52;;;4.07;;
26718;SDS011;14326;50.794;6.060;2024-01-27T04:09:34;21.55;;;4.72;;
26718;SDS011;14326;50.794;6.060;2024-01-27T04:12:00;21.05;;;3.92;;
26718;SDS011;14326;50.794;6.060;2024-01-27T04:14:27;19.88;;;4.32;;
26718;SDS011;14326;50.794;6.060;2024-01-27T04:16:54;16.70;;;3.92;;
26718;SDS011;14326;50.794;6.060;2024-01-27T04:19:20;25.33;;;4.20;;
26718;SDS011;14326;50.794;6.060;2024-01-27T04:21:47;21.55;;;3.85;;
26718;SDS011;14326;50.794;6.060;2024-01-27T04:24:14;20.88;;;4.10;;
26718;SDS011;14326;50.794;6.060;2024-01-27T04:26:40;21.90;;;4.63;;
26718;SDS011;14326;50.794;6.060;2024-01-27T04:29:07;21.48;;;4.70;;
26718;SDS011;14326;50.794;6.060;2024-01-27T04:31:38;14.32;;;4.07;;
26718;SDS011;14326;50.794;6.060;2024-01-27T04:34:06;19.85;;;4.22;;
26718;SDS011;14326;50.794;6.060;2024-01-27T04:36:32;23.55;;;4.43;;
26718;SDS011;14326;50.794;6.060;2024-01-27T04:38:59;16.35;;;4.15;;
26718;SDS011;14326;50.794;6.060;2024-01-27T04:41:27;17.40;;;3.80;;
26718;SDS011;14326;50.794;6.060;2024-01-27T04:43:54;18.40;;;3.90;;
26718;SDS011;14326;50.794;6.060;2024-01-27T04:46:21;17.17;;;3.85;;
26718;SDS011;14326;50.794;6.060;2024-01-27T04:48:48;20.15;;;3.90;;
26718;SDS011;14326;50.794;6.060;2024-01-27T04:51:14;19.52;;;3.35;;
26718;SDS011;14326;50.794;6.060;2024-01-27T04:53:41;16.38;;;3.92;;
26718;SDS011;14326;50.794;6.060;2024-01-27T04:56:07;20.77;;;3.67;;
26718;SDS011;14326;50.794;6.060;2024-01-27T04:58:36;25.17;;;4.07;;
26718;SDS011;14326;50.794;6.060;2024-01-27T05:01:02;19.52;;;4.05;;
26718;SDS011;14326;50.794;6.060;2024-01-27T05:03:29;23.25;;;4.50;;
26718;SDS011;14326;50.794;6.060;2024-01-27T05:05:56;21.70;;;4.00;;
26718;SDS011;14326;50.794;6.060;2024-01-27T05:08:22;18.33;;;3.83;;
26718;SDS011;14326;50.794;6.060;2024-01-27T05:10:49;20.95;;;4.38;;
26718;SDS011;14326;50.794;6.060;2024-01-27T05:13:16;17.63;;;3.75;;
26718;SDS011;14326;50.794;6.060;2024-01-27T05:15:44;19.05;;;4.07;;
26718;SDS011;14326;50.794;6.060;2024-01-27T05:18:11;20.98;;;4.00;;
26718;SDS011;14326;50.794;6.060;2024-01-27T05:20:37;23.75;;;3.83;;
26718;SDS011;14326;50.794;6.060;2024-01-27T05:23:04;19.77;;;4.07;;
26718;SDS011;14326;50.794;6.060;2024-01-27T05:25:31;23.45;;;4.60;;
26718;SDS011;14326;50.794;6.060;2024-01-27T05:27:57;21.05;;;4.60;;
26718;SDS011;14326;50.794;6.060;2024-01-27T05:30:24;22.33;;;4.85;;
26718;SDS011;14326;50.794;6.060;2024-01-27T05:32:51;24.48;;;4.45;;
26718;SDS011;14326;50.794;6.060;2024-01-27T05:35:17;22.80;;;4.20;;
26718;SDS011;14326;50.794;6.060;2024-01-27T05:37:44;14.82;;;3.50;;
26718;SDS011;14326;50.794;6.060;2024-01-27T05:40:11;17.60;;;4.07;;
26718;SDS011;14326;50.794;6.060;2024-01-27T05:42:38;18.60;;;4.03;;
26718;SDS011;14326;50.794;6.060;2024-01-27T05:45:07;19.17;;;4.03;;
26718;SDS011;14326;50.794;6.060;2024-01-27T05:47:35;26.70;;;4.05;;
26718;SDS011;14326;50.794;6.060;2024-01-27T05:50:03;17.95;;;5.30;;
26718;SDS011;14326;50.794;6.060;2024-01-27T05:52:32;16.17;;;3.80;;
26718;SDS011;14326;50.794;6.060;2024-01-27T05:54:59;15.98;;;3.70;;
26718;SDS011;14326;50.794;6.060;2024-01-27T05:57:26;17.42;;;3.72;;
26718;SDS011;14326;50.794;6.060;2024-01-27T05:59:52;19.75;;;4.00;;
26718;SDS011;14326;50.794;6.060;2024-01-27T06:02:19;17.75;;;4.65;;
26718;SDS011;14326;50.794;6.060;2024-01-27T06:04:46;19.80;;;4.10;;
26718;SDS011;14326;50.794;6.060;2024-01-27T06:07:13;15.27;;;4.47;;
26718;SDS011;14326;50.794;6.060;2024-01-27T06:09:40;19.10;;;4.50;;
26718;SDS011;14326;50.794;6.060;2024-01-27T06:12:07;17.85;;;4.18;;
26718;SDS011;14326;50.794;6.060;2024-01-27T06:14:33;16.80;;;4.05;;
26718;SDS011;14326;50.794;6.060;2024-01-27T06:17:00;20.52;;;4.78;;
26718;SDS011;14326;50.794;6.060;2024-01-27T06:19:27;17.80;;;3.95;;
26718;SDS011;14326;50.794;6.060;2024-01-27T06:21:54;18.58;;;3.90;;
26718;SDS011;14326;50.794;6.060;2024-01-27T06:24:22;16.80;;;4.20;;
26718;SDS011;14326;50.794;6.060;2024-01-27T06:26:49;19.40;;;4.68;;
26718;SDS011;14326;50.794;6.060;2024-01-27T06:29:15;17.00;;;3.97;;
26718;SDS011;14326;50.794;6.060;2024-01-27T06:31:43;18.77;;;3.90;;
26718;SDS011;14326;50.794;6.060;2024-01-27T06:34:10;23.13;;;4.70;;
26718;SDS011;14326;50.794;6.060;2024-01-27T06:36:37;23.75;;;4.53;;
26718;SDS011;14326;50.794;6.060;2024-01-27T06:39:04;18.17;;;3.95;;
26718;SDS011;14326;50.794;6.060;2024-01-27T06:41:32;20.80;;;4.55;;
26718;SDS011;14326;50.794;6.060;2024-01-27T06:43:58;19.45;;;4.40;;
26718;SDS011;14326;50.794;6.060;2024-01-27T06:46:25;18.08;;;3.88;;
26718;SDS011;14326;50.794;6.060;2024-01-27T06:48:51;27.70;;;4.10;;
26718;SDS011;14326;50.794;6.060;2024-01-27T06:51:18;21.23;;;4.20;;
26718;SDS011;14326;50.794;6.060;2024-01-27T06:53:44;18.13;;;4.43;;
26718;SDS011;14326;50.794;6.060;2024-01-27T06:56:13;18.90;;;3.95;;
26718;SDS011;14326;50.794;6.060;2024-01-27T06:58:41;19.23;;;4.72;;
26718;SDS011;14326;50.794;6.060;2024-01-27T07:01:08;15.68;;;3.40;;
26718;SDS011;14326;50.794;6.060;2024-01-27T07:03:35;26.02;;;4.30;;
26718;SDS011;14326;50.794;6.060;2024-01-27T07:06:04;22.67;;;4.35;;
26718;SDS011;14326;50.794;6.060;2024-01-27T07:08:31;18.27;;;4.13;;
26718;SDS011;14326;50.794;6.060;2024-01-27T07:10:58;19.67;;;4.70;;
26718;SDS011;14326;50.794;6.060;2024-01-27T07:13:24;17.73;;;4.15;;
26718;SDS011;14326;50.794;6.060;2024-01-27T07:15:55;18.80;;;3.83;;
26718;SDS011;14326;50.794;6.060;2024-01-27T07:18:22;21.50;;;3.25;;
26718;SDS011;14326;50.794;6.060;2024-01-27T07:20:49;19.42;;;3.20;;
26718;SDS011;14326;50.794;6.060;2024-01-27T07:23:16;17.27;;;3.38;;
26718;SDS011;14326;50.794;6.060;2024-01-27T07:25:44;22.42;;;4.53;;
26718;SDS011;14326;50.794;6.060;2024-01-27T07:28:11;20.10;;;3.17;;
26718;SDS011;14326;50.794;6.060;2024-01-27T07:30:40;15.23;;;2.95;;
26718;SDS011;14326;50.794;6.060;2024-01-27T07:33:08;18.50;;;4.30;;
26718;SDS011;14326;50.794;6.060;2024-01-27T07:35:35;22.10;;;3.70;;
26718;SDS011;14326;50.794;6.060;2024-01-27T07:38:01;18.08;;;3.85;;
26718;SDS011;14326;50.794;6.060;2024-01-27T07:40:28;21.70;;;3.83;;
26718;SDS011;14326;50.794;6.060;2024-01-27T07:42:54;18.65;;;4.00;;
26718;SDS011;14326;50.794;6.060;2024-01-27T07:45:21;21.00;;;3.70;;
26718;SDS011;14326;50.794;6.060;2024-01-27T07:47:48;15.88;;;3.53;;
26718;SDS011;14326;50.794;6.060;2024-01-27T07:50:16;20.50;;;4.10;;
26718;SDS011;14326;50.794;6.060;2024-01-27T07:52:43;17.38;;;4.10;;
26718;SDS011;14326;50.794;6.060;2024-01-27T07:55:09;12.13;;;3.22;;
26718;SDS011;14326;50.794;6.060;2024-01-27T07:57:36;19.08;;;3.17;;
26718;SDS011;14326;50.794;6.060;2024-01-27T08:00:03;24.25;;;4.28;;
26718;SDS011;14326;50.794;6.060;2024-01-27T08:02:31;16.25;;;3.90;;
26718;SDS011;14326;50.794;6.060;2024-01-27T08:04:58;18.90;;;3.92;;
26718;SDS011;14326;50.794;6.060;2024-01-27T08:07:26;16.52;;;3.35;;
26718;SDS011;14326;50.794;6.060;2024-01-27T08:09:52;17.35;;;3.05;;
26718;SDS011;14326;50.794;6.060;2024-01-27T08:12:19;14.35;;;2.95;;
26718;SDS011;14326;50.794;6.060;2024-01-27T08:14:45;20.30;;;2.80;;
26718;SDS011;14326;50.794;6.060;2024-01-27T09:17:45;16.77;;;3.17;;
26718;SDS011;14326;50.794;6.060;2024-01-27T09:20:13;16.30;;;2.45;;
26718;SDS011;14326;50.794;6.060;2024-01-27T09:22:40;18.33;;;3.08;;
26718;SDS011;14326;50.794;6.060;2024-01-27T09:25:07;18.83;;;3.15;;
26718;SDS011;14326;50.794;6.060;2024-01-27T09:27:34;18.85;;;3.75;;
26718;SDS011;14326;50.794;6.060;2024-01-27T09:30:01;19.10;;;3.72;;
26718;SDS011;14326;50.794;6.060;2024-01-27T09:32:28;11.00;;;2.55;;
26718;SDS011;14326;50.794;6.060;2024-01-27T09:34:56;20.70;;;2.90;;
26718;SDS011;14326;50.794;6.060;2024-01-27T09:37:23;17.13;;;2.83;;
26718;SDS011;14326;50.794;6.060;2024-01-27T09:39:50;22.85;;;3.50;;
26718;SDS011;14326;50.794;6.060;2024-01-27T09:42:16;19.27;;;3.28;;
26718;SDS011;14326;50.794;6.060;2024-01-27T09:44:48;19.55;;;2.88;;
26718;SDS011;14326;50.794;6.060;2024-01-27T09:47:15;15.68;;;2.63;;
26718;SDS011;14326;50.794;6.060;2024-01-27T09:49:42;18.80;;;3.70;;
26718;SDS011;14326;50.794;6.060;2024-01-27T09:52:10;14.23;;;2.70;;
26718;SDS011;14326;50.794;6.060;2024-01-27T09:54:37;22.40;;;3.20;;
26718;SDS011;14326;50.794;6.060;2024-01-27T09:57:03;14.50;;;2.83;;
26718;SDS011;14326;50.794;6.060;2024-01-27T09:59:30;13.68;;;2.15;;
26718;SDS011;14326;50.794;6.060;2024-01-27T10:01:59;13.10;;;2.17;;
26718;SDS011;14326;50.794;6.060;2024-01-27T10:04:26;14.40;;;2.72;;
26718;SDS011;14326;50.794;6.060;2024-01-27T10:06:54;17.52;;;3.20;;
26718;SDS011;14326;50.794;6.060;2024-01-27T10:09:25;15.63;;;3.00;;
26718;SDS011;14326;50.794;6.060;2024-01-27T10:11:52;15.93;;;2.45;;
26718;SDS011;14326;50.794;6.060;2024-01-27T10:14:20;13.38;;;2.70;;
26718;SDS011;14326;50.794;6.060;2024-01-27T10:16:46;14.13;;;2.60;;
26718;SDS011;14326;50.794;6.060;2024-01-27T10:19:14;16.48;;;2.78;;
26718;SDS011;14326;50.794;6.060;2024-01-27T10:21:42;19.35;;;3.60;;
26718;SDS011;14326;50.794;6.060;2024-01-27T10:24:09;14.02;;;2.65;;
26718;SDS011;14326;50.794;6.060;2024-01-27T10:26:37;15.10;;;2.60;;
26718;SDS011;14326;50.794;6.060;2024-01-27T10:29:03;19.70;;;2.97;;
26718;SDS011;14326;50.794;6.060;2024-01-27T10:31:31;12.35;;;2.78;;
26718;SDS011;14326;50.794;6.060;2024-01-27T10:33:58;20.75;;;3.03;;
26718;SDS011;14326;50.794;6.060;2024-01-27T10:36:26;17.13;;;3.13;;
26718;SDS011;14326;50.794;6.060;2024-01-27T10:39:13;15.45;;;3.15;;
26718;SDS011;14326;50.794;6.060;2024-01-27T10:41:42;14.43;;;2.90;;
26718;SDS011;14326;50.794;6.060;2024-01-27T10:44:12;17.63;;;2.85;;
26718;SDS011;14326;50.794;6.060;2024-01-27T10:46:41;12.60;;;2.30;;
26718;SDS011;14326;50.794;6.060;2024-01-27T10:49:10;18.95;;;3.25;;
26718;SDS011;14326;50.794;6.060;2024-01-27T10:51:38;23.20;;;2.85;;
26718;SDS011;14326;50.794;6.060;2024-01-27T10:54:10;16.15;;;3.22;;
26718;SDS011;14326;50.794;6.060;2024-01-27T10:56:43;13.07;;;2.58;;
26718;SDS011;14326;50.794;6.060;2024-01-27T10:59:12;20.90;;;3.28;;
26718;SDS011;14326;50.794;6.060;2024-01-27T11:01:41;18.77;;;3.08;;
26718;SDS011;14326;50.794;6.060;2024-01-27T11:04:07;15.63;;;3.15;;
26718;SDS011;14326;50.794;6.060;2024-01-27T11:06:38;14.88;;;2.28;;
26718;SDS011;14326;50.794;6.060;2024-01-27T11:09:07;15.15;;;2.53;;
26718;SDS011;14326;50.794;6.060;2024-01-27T11:11:34;14.20;;;3.10;;
26718;SDS011;14326;50.794;6.060;2024-01-27T11:14:03;12.07;;;2.83;;
26718;SDS011;14326;50.794;6.060;2024-01-27T11:16:30;16.67;;;3.47;;
26718;SDS011;14326;50.794;6.060;2024-01-27T11:18:57;15.50;;;3.25;;
26718;SDS011;14326;50.794;6.060;2024-01-27T11:21:23;13.35;;;2.83;;
26718;SDS011;14326;50.794;6.060;2024-01-27T11:23:50;19.20;;;3.47;;
26718;SDS011;14326;50.794;6.060;2024-01-27T11:26:17;17.13;;;3.28;;
26718;SDS011;14326;50.794;6.060;2024-01-27T11:28:48;12.50;;;2.03;;
26718;SDS011;14326;50.794;6.060;2024-01-27T11:31:17;15.00;;;2.60;;
26718;SDS011;14326;50.794;6.060;2024-01-27T11:33:46;17.33;;;2.88;;
26718;SDS011;14326;50.794;6.060;2024-01-27T11:36:20;17.67;;;2.60;;
26718;SDS011;14326;50.794;6.060;2024-01-27T11:38:48;10.43;;;2.05;;
26718;SDS011;14326;50.794;6.060;2024-01-27T11:41:24;9.88;;;2.00;;
26718;SDS011;14326;50.794;6.060;2024-01-27T11:43:52;14.38;;;2.10;;
26718;SDS011;14326;50.794;6.060;2024-01-27T11:46:20;16.15;;;2.30;;
26718;SDS011;14326;50.794;6.060;2024-01-27T11:48:47;14.63;;;2.42;;
26718;SDS011;14326;50.794;6.060;2024-01-27T11:51:14;9.02;;;2.55;;
26718;SDS011;14326;50.794;6.060;2024-01-27T11:53:41;13.88;;;2.67;;
26718;SDS011;14326;50.794;6.060;2024-01-27T11:56:10;12.60;;;2.30;;
26718;SDS011;14326;50.794;6.060;2024-01-27T11:58:36;14.07;;;2.40;;
26718;SDS011;14326;50.794;6.060;2024-01-27T12:01:03;14.80;;;2.60;;
26718;SDS011;14326;50.794;6.060;2024-01-27T12:03:31;20.50;;;2.47;;
26718;SDS011;14326;50.794;6.060;2024-01-27T12:05:58;15.30;;;2.40;;
26718;SDS011;14326;50.794;6.060;2024-01-27T12:08:25;13.07;;;2.30;;
26718;SDS011;14326;50.794;6.060;2024-01-27T12:10:52;11.50;;;2.45;;
26718;SDS011;14326;50.794;6.060;2024-01-27T12:13:19;12.65;;;2.40;;
26718;SDS011;14326;50.794;6.060;2024-01-27T12:15:46;14.00;;;2.50;;
26718;SDS011;14326;50.794;6.060;2024-01-27T12:18:13;16.50;;;3.28;;
26718;SDS011;14326;50.794;6.060;2024-01-27T12:20:42;13.95;;;2.60;;
26718;SDS011;14326;50.794;6.060;2024-01-27T12:23:08;16.20;;;2.50;;
26718;SDS011;14326;50.794;6.060;2024-01-27T12:25:35;13.38;;;2.28;;
26718;SDS011;14326;50.794;6.060;2024-01-27T12:28:02;11.15;;;2.65;;
26718;SDS011;14326;50.794;6.060;2024-01-27T12:30:29;13.40;;;2.85;;
26718;SDS011;14326;50.794;6.060;2024-01-27T12:32:57;15.35;;;3.00;;
26718;SDS011;14326;50.794;6.060;2024-01-27T12:35:24;11.80;;;2.58;;
26718;SDS011;14326;50.794;6.060;2024-01-27T12:37:55;7.32;;;1.75;;
26718;SDS011;14326;50.794;6.060;2024-01-27T12:40:22;12.48;;;2.30;;
26718;SDS011;14326;50.794;6.060;2024-01-27T12:42:49;15.48;;;3.15;;
26718;SDS011;14326;50.794;6.060;2024-01-27T12:45:16;12.02;;;2.58;;
26718;SDS011;14326;50.794;6.060;2024-01-27T12:47:43;11.52;;;2.50;;
26718;SDS011;14326;50.794;6.060;2024-01-27T12:50:10;17.00;;;2.40;;
26718;SDS011;14326;50.794;6.060;2024-01-27T12:52:37;15.90;;;2.70;;
26718;SDS011;14326;50.794;6.060;2024-01-27T12:55:05;13.70;;;2.83;;
26718;SDS011;14326;50.794;6.060;2024-01-27T12:57:32;14.68;;;2.50;;
26718;SDS011;14326;50.794;6.060;2024-01-27T12:59:59;17.92;;;3.20;;
26718;SDS011;14326;50.794;6.060;2024-01-27T13:02:25;15.70;;;2.88;;
26718;SDS011;14326;50.794;6.060;2024-01-27T13:04:52;17.25;;;2.55;;
26718;SDS011;14326;50.794;6.060;2024-01-27T13:07:18;16.50;;;3.38;;
26718;SDS011;14326;50.794;6.060;2024-01-27T13:09:45;16.10;;;2.45;;
26718;SDS011;14326;50.794;6.060;2024-01-27T13:12:13;16.67;;;3.75;;
26718;SDS011;14326;50.794;6.060;2024-01-27T13:14:40;14.73;;;2.67;;
26718;SDS011;14326;50.794;6.060;2024-01-27T13:17:07;15.07;;;2.63;;
26718;SDS011;14326;50.794;6.060;2024-01-27T13:19:34;18.95;;;3.25;;
26718;SDS011;14326;50.794;6.060;2024-01-27T13:22:00;18.85;;;2.72;;
26718;SDS011;14326;50.794;6.060;2024-01-27T13:24:27;15.52;;;3.03;;
26718;SDS011;14326;50.794;6.060;2024-01-27T13:26:54;15.45;;;2.50;;
26718;SDS011;14326;50.794;6.060;2024-01-27T13:29:22;15.35;;;3.00;;
26718;SDS011;14326;50.794;6.060;2024-01-27T13:31:49;18.17;;;2.97;;
26718;SDS011;14326;50.794;6.060;2024-01-27T13:34:16;19.23;;;3.35;;
26718;SDS011;14326;50.794;6.060;2024-01-27T13:36:42;15.25;;;2.53;;
26718;SDS011;14326;50.794;6.060;2024-01-27T13:39:09;16.10;;;2.97;;
26718;SDS011;14326;50.794;6.060;2024-01-27T13:41:36;16.45;;;2.70;;
26718;SDS011;14326;50.794;6.060;2024-01-27T13:44:03;10.77;;;2.90;;
26718;SDS011;14326;50.794;6.060;2024-01-27T13:46:32;16.27;;;2.67;;
26718;SDS011;14326;50.794;6.060;2024-01-27T13:48:59;18.75;;;3.10;;
26718;SDS011;14326;50.794;6.060;2024-01-27T13:51:25;16.15;;;2.80;;
26718;SDS011;14326;50.794;6.060;2024-01-27T13:53:52;12.52;;;3.08;;
26718;SDS011;14326;50.794;6.060;2024-01-27T13:56:18;15.27;;;2.70;;
26718;SDS011;14326;50.794;6.060;2024-01-27T13:58:45;14.13;;;2.65;;
26718;SDS011;14326;50.794;6.060;2024-01-27T14:01:12;20.25;;;3.90;;
26718;SDS011;14326;50.794;6.060;2024-01-27T14:03:40;14.23;;;2.50;;
26718;SDS011;14326;50.794;6.060;2024-01-27T14:06:07;14.82;;;2.83;;
26718;SDS011;14326;50.794;6.060;2024-01-27T14:08:37;14.85;;;3.17;;
26718;SDS011;14326;50.794;6.060;2024-01-27T14:11:04;20.95;;;3.45;;
26718;SDS011;14326;50.794;6.060;2024-01-27T14:13:30;16.73;;;2.97;;
26718;SDS011;14326;50.794;6.060;2024-01-27T14:15:57;19.27;;;3.05;;
26718;SDS011;14326;50.794;6.060;2024-01-27T14:18:24;14.00;;;3.00;;
26718;SDS011;14326;50.794;6.060;2024-01-27T14:20:52;14.80;;;3.10;;
26718;SDS011;14326;50.794;6.060;2024-01-27T14:23:18;17.13;;;3.78;;
26718;SDS011;14326;50.794;6.060;2024-01-27T14:25:45;20.60;;;3.08;;
26718;SDS011;14326;50.794;6.060;2024-01-27T14:28:12;15.73;;;2.78;;
26718;SDS011;14326;50.794;6.060;2024-01-27T14:30:39;13.32;;;2.50;;
26718;SDS011;14326;50.794;6.060;2024-01-27T14:33:05;16.00;;;2.70;;
26718;SDS011;14326;50.794;6.060;2024-01-27T14:35:32;15.82;;;3.08;;
26718;SDS011;14326;50.794;6.060;2024-01-27T14:38:00;12.20;;;2.50;;
26718;SDS011;14326;50.794;6.060;2024-01-27T14:40:27;15.27;;;2.60;;
26718;SDS011;14326;50.794;6.060;2024-01-27T14:42:53;15.05;;;2.25;;
26718;SDS011;14326;50.794;6.060;2024-01-27T14:45:21;15.57;;;2.85;;
26718;SDS011;14326;50.794;6.060;2024-01-27T14:47:48;14.70;;;2.90;;
26718;SDS011;14326;50.794;6.060;2024-01-27T14:50:15;13.60;;;3.00;;
26718;SDS011;14326;50.794;6.060;2024-01-27T14:52:41;19.60;;;3.42;;
26718;SDS011;14326;50.794;6.060;2024-01-27T14:55:09;12.60;;;3.10;;
26718;SDS011;14326;50.794;6.060;2024-01-27T14:57:40;12.45;;;2.65;;
26718;SDS011;14326;50.794;6.060;2024-01-27T15:00:07;14.77;;;2.80;;
26718;SDS011;14326;50.794;6.060;2024-01-27T15:02:34;16.75;;;2.72;;
26718;SDS011;14326;50.794;6.060;2024-01-27T15:05:01;16.90;;;2.58;;
26718;SDS011;14326;50.794;6.060;2024-01-27T15:07:28;13.38;;;2.80;;
26718;SDS011;14326;50.794;6.060;2024-01-27T15:09:56;13.00;;;2.60;;
26718;SDS011;14326;50.794;6.060;2024-01-27T15:12:24;16.00;;;3.13;;
26718;SDS011;14326;50.794;6.060;2024-01-27T15:14:50;13.32;;;3.15;;
26718;SDS011;14326;50.794;6.060;2024-01-27T15:17:17;14.63;;;2.97;;
26718;SDS011;14326;50.794;6.060;2024-01-27T15:19:44;18.33;;;2.50;;
26718;SDS011;14326;50.794;6.060;2024-01-27T15:22:10;13.82;;;2.78;;
26718;SDS011;14326;50.794;6.060;2024-01-27T15:24:37;14.20;;;2.55;;
26718;SDS011;14326;50.794;6.060;2024-01-27T15:27:05;12.60;;;2.67;;
26718;SDS011;14326;50.794;6.060;2024-01-27T15:29:33;14.38;;;2.42;;
26718;SDS011;14326;50.794;6.060;2024-01-27T15:32:00;14.70;;;2.50;;
26718;SDS011;14326;50.794;6.060;2024-01-27T15:34:26;14.70;;;3.00;;
26718;SDS011;14326;50.794;6.060;2024-01-27T15:36:53;14.07;;;2.50;;